KFAR/FAR METAR and TAF weather

Enter ICAO airport designator
Station Type Date Time Source
KFAR METAR 2021/02/27 03:53 UTC NOAA

KFAR 270353Z 33008KT CLR M01/M03 A2962 RMK AO2 SLP040 T10061033 $


Station Type Date Time Source
KFAR Decoded METAR 2021/02/27 03:53 UTC NOAA

HECTOR INTERNATIONAL AIRPORT , ND, United States (KFAR) 46-56N 096-49W 277M
Feb 26, 2021 - 10:53 PM EST / 2021.02.27 0353 UTC
Wind: from the NNW (330 degrees) at 9 MPH (8 KT):0
Sky conditions: clear
Temperature: 30.9 F (-0.6 C)
Windchill: 23 F (-5 C):1
Dew Point: 26.1 F (-3.3 C)
Relative Humidity: 81%
Pressure (altimeter): 29.62 in. Hg (1003 hPa)
ob: KFAR 270353Z 33008KT CLR M01/M03 A2962 RMK AO2 SLP040 T10061033
cycle: 4

Station Type Date Time Source
KFAR TAF 2021/02/26 18:36 UTC NOAA

TAF KFAR 261734Z 2618/2718 22013G18KT P6SM SCT150
FM270000 VRB06KT P6SM SCT180
FM270800 36009KT P6SM BKN030
FM271200 36011KT P6SM OVC011

Example: see airport list